Obera, Argentina
Current Conditions -  °F | °C
As of 7:00 PM on Monday 26 Jan 2015 (Local Time) from SARP Reporting Station
Scattered Clouds Scattered Clouds  
Wind Chill: 31°   Ceiling: Unl
Heat Index: 36°   Visibility: 6mi
Dew Point: 24°   Wind: 3mph
Humidity: 66%   Direction: 90°E
Pressure: 29.8"   Gusts: NA
Location:  27.48°S, 55.13°W
Report Text: SARP 262200Z 09003KT 9999 FEW025 SCT200 31/24 Q1009
Loading
Personal Weather Stations






























Interactive Weather Map New forecast layout! Learn more

10-Day Weather Forecast

Advertisements
Track Severe Weather on mobile